Time;durP1;ratioP1;P1;durP2;ratioP2;P2;SDS_P1;SDS_P2;PMS_P1;PMS_P2;Temp;Humidity;BMP_temperature;BMP_pressure;BME280_temperature;BME280_humidity;BME280_pressure;Samples;Min_cycle;Max_cycle;Signal;HPM_P1;HPM_P2
2023/01/21 00:00:12;;;;;;;1.20;0.90;;;1.50;91.30;1.90;96248.00;;;;5038029;28;20796;-86
2023/01/21 00:03:01;;;;;;;1.30;1.20;;;1.00;92.30;1.70;96247.00;;;;5045581;28;20435;-88
2023/01/21 00:05:50;;;;;;;2.80;1.53;;;0.90;92.00;1.90;96245.00;;;;5041663;28;20810;-87
2023/01/21 00:08:39;;;;;;;0.87;0.83;;;2.00;91.10;2.00;96239.00;;;;5037248;28;20460;-87
2023/01/21 00:11:28;;;;;;;2.50;1.00;;;1.80;91.10;1.90;96228.00;;;;5038825;28;20427;-87
2023/01/21 00:14:17;;;;;;;1.23;1.13;;;1.10;89.40;2.20;96251.00;;;;5043333;28;20432;-87
2023/01/21 00:17:07;;;;;;;1.33;1.17;;;1.20;90.50;2.00;96238.00;;;;5039466;28;20857;-86
2023/01/21 00:19:55;;;;;;;1.20;1.07;;;2.20;91.90;1.90;96221.00;;;;5038253;28;20571;-89
2023/01/21 00:22:44;;;;;;;0.80;0.80;;;2.20;91.70;2.00;96218.00;;;;5037394;28;20427;-87
2023/01/21 00:25:33;;;;;;;0.93;0.80;;;1.10;91.20;2.00;96218.00;;;;5036176;28;20534;-89
2023/01/21 00:28:21;;;;;;;1.30;1.20;;;3.60;91.00;2.10;96218.00;;;;5065092;28;20492;-86
2023/01/21 00:31:11;;;;;;;1.10;0.97;;;3.00;91.30;1.90;96198.00;;;;5055563;28;20427;-88
2023/01/21 00:34:01;;;;;;;0.60;0.60;;;1.00;91.00;2.10;96219.00;;;;5059000;28;20422;-88
2023/01/21 00:36:50;;;;;;;2.60;1.73;;;1.10;90.60;2.20;96211.00;;;;5070159;28;20462;-87
2023/01/21 00:39:41;;;;;;;1.63;0.93;;;1.10;90.00;2.00;96199.00;;;;5060040;28;20447;-88
2023/01/21 00:42:30;;;;;;;1.67;1.13;;;1.10;90.40;2.10;96195.00;;;;5042378;28;20435;-85
2023/01/21 00:45:18;;;;;;;0.77;0.77;;;1.10;90.20;2.10;96193.00;;;;5046324;28;20834;-89
2023/01/21 00:48:07;;;;;;;1.00;1.00;;;1.10;89.50;2.10;96188.00;;;;5036939;28;20452;-88
2023/01/21 00:50:59;;;;;;;1.17;1.03;;;1.90;90.00;2.00;96189.00;;;;5038461;28;20416;-85
2023/01/21 00:53:48;;;;;;;0.70;0.67;;;2.10;90.50;1.80;96188.00;;;;5039709;28;20470;-86
2023/01/21 00:56:37;;;;;;;1.13;1.03;;;1.10;91.40;1.90;96183.00;;;;5038372;28;20425;-86
2023/01/21 00:59:26;;;;;;;2.23;1.43;;;1.40;91.30;1.90;96184.00;;;;5038192;28;20479;-87
2023/01/21 01:02:15;;;;;;;1.37;1.27;;;1.80;90.70;1.80;96183.00;;;;5050730;28;20424;-87
2023/01/21 01:05:07;;;;;;;1.03;0.90;;;2.50;92.00;1.60;96170.00;;;;5052863;28;20479;-88
2023/01/21 01:07:57;;;;;;;1.03;1.00;;;0.80;91.40;1.70;96169.00;;;;5037967;28;21015;-86
2023/01/21 01:10:45;;;;;;;1.40;1.30;;;0.80;91.20;1.80;96175.00;;;;5038928;28;21084;-88
2023/01/21 01:13:36;;;;;;;1.23;1.13;;;1.60;91.60;1.70;96175.00;;;;5062050;28;20425;-87
2023/01/21 01:16:25;;;;;;;1.20;1.10;;;1.50;91.90;1.70;96174.00;;;;5038669;28;20560;-88
2023/01/21 01:19:13;;;;;;;1.70;1.60;;;1.40;91.50;1.80;96160.00;;;;5036073;28;20911;-87
2023/01/21 01:22:02;;;;;;;1.30;1.20;;;1.00;91.20;1.70;96165.00;;;;5036627;28;20910;-90
2023/01/21 01:24:52;;;;;;;1.50;1.33;;;1.50;91.90;1.60;96153.00;;;;5037468;28;20428;-88
2023/01/21 01:27:41;;;;;;;1.40;1.30;;;0.70;91.50;1.90;96167.00;;;;5037634;28;20903;-86
2023/01/21 01:30:30;;;;;;;1.37;1.23;;;0.70;91.00;1.70;96151.00;;;;5043461;28;20497;-89
2023/01/21 01:33:19;;;;;;;1.63;1.53;;;0.90;90.40;2.00;96168.00;;;;5056822;28;20428;-87
2023/01/21 01:36:13;;;;;;;1.50;1.40;;;1.60;91.20;2.00;96162.00;;;;5037293;28;20435;-87
2023/01/21 01:39:01;;;;;;;1.30;1.20;;;0.90;91.20;1.80;96156.00;;;;5045958;28;20468;-86
2023/01/21 01:41:51;;;;;;;1.07;1.03;;;0.80;91.50;1.80;96161.00;;;;5035370;28;20420;-86
2023/01/21 01:44:59;;;;;;;1.27;1.17;;;0.80;91.50;1.70;96153.00;;;;5037000;28;20491;-87
2023/01/21 01:47:57;;;;;;;2.03;1.40;;;0.80;92.00;1.70;96158.00;;;;5037538;28;20460;-87
2023/01/21 01:50:47;;;;;;;1.33;1.00;;;1.40;92.10;1.20;96133.00;;;;5034760;28;20440;-87
2023/01/21 01:53:40;;;;;;;1.47;1.37;;;0.70;91.20;1.90;96152.00;;;;5034054;28;20508;-86
2023/01/21 01:56:30;;;;;;;1.33;1.23;;;0.80;91.00;2.10;96136.00;;;;5037379;28;20428;-89
2023/01/21 01:59:20;;;;;;;2.10;1.23;;;1.70;91.50;2.10;96129.00;;;;5034557;28;20469;-87
2023/01/21 02:02:12;;;;;;;1.17;1.17;;;1.40;90.90;1.80;96114.00;;;;5052373;28;20423;-85
2023/01/21 02:05:07;;;;;;;1.13;1.03;;;1.70;90.70;2.40;96141.00;;;;5044180;28;20420;-88
2023/01/21 02:07:55;;;;;;;1.30;1.17;;;1.20;90.20;2.20;96114.00;;;;5063805;28;20456;-87
2023/01/21 02:10:44;;;;;;;1.20;1.10;;;2.90;90.30;2.30;96121.00;;;;5036323;28;20416;-86
2023/01/21 02:13:33;;;;;;;2.00;1.50;;;1.90;90.10;2.60;96129.00;;;;5054334;28;20460;-88
2023/01/21 02:17:01;;;;;;;2.03;1.63;;;2.20;89.40;2.30;96133.00;;;;5035556;28;20436;-88
2023/01/21 02:20:33;;;;;;;1.37;1.30;;;1.50;90.00;2.40;96129.00;;;;5040686;28;20462;-87
2023/01/21 02:23:37;;;;;;;0.97;0.97;;;1.60;88.90;2.30;96123.00;;;;5050779;28;20431;-88
2023/01/21 02:27:23;;;;;;;1.13;1.00;;;2.30;88.70;2.40;96107.00;;;;5047354;28;20431;-88
2023/01/21 02:30:58;;;;;;;0.80;0.80;;;1.60;88.50;2.40;96115.00;;;;5045822;28;20468;-86
2023/01/21 02:34:02;;;;;;;2.03;1.40;;;1.60;89.00;2.40;96111.00;;;;5056470;28;20469;-85
2023/01/21 02:37:05;;;;;;;1.67;1.53;;;1.50;88.90;2.40;96118.00;;;;5051922;28;20463;-87
2023/01/21 02:40:09;;;;;;;1.50;1.40;;;1.50;89.00;2.50;96116.00;;;;5036491;28;20467;-88
2023/01/21 02:43:07;;;;;;;1.00;0.90;;;1.50;87.50;2.50;96110.00;;;;5045647;28;20447;-88
2023/01/21 02:46:04;;;;;;;1.10;1.00;;;2.30;88.10;2.60;96115.00;;;;5047672;28;20450;-86
2023/01/21 02:48:58;;;;;;;1.03;0.90;;;1.50;87.90;2.30;96122.00;;;;5058161;28;20983;-88
2023/01/21 02:51:48;;;;;;;1.17;1.10;;;2.50;88.30;2.40;96122.00;;;;5057761;28;20439;-88
2023/01/21 02:54:55;;;;;;;1.80;1.47;;;1.70;87.50;2.30;96129.00;;;;5057053;28;20555;-88
2023/01/21 02:57:47;;;;;;;1.70;1.60;;;2.80;88.90;2.40;96121.00;;;;5044180;28;20543;-87
2023/01/21 03:00:54;;;;;;;1.47;1.20;;;1.90;87.80;2.30;96120.00;;;;5044737;28;20564;-87
2023/01/21 03:04:21;;;;;;;2.50;1.37;;;2.50;87.90;2.50;96115.00;;;;5046074;28;20435;-89
2023/01/21 03:07:19;;;;;;;1.80;1.10;;;1.50;87.80;2.10;96109.00;;;;5038182;28;20440;-87
2023/01/21 03:10:17;;;;;;;1.37;1.00;;;2.90;89.80;2.10;96101.00;;;;5043280;28;20439;-86
2023/01/21 03:13:13;;;;;;;1.30;0.93;;;1.30;88.40;2.40;96117.00;;;;5058446;28;20436;-87
2023/01/21 03:19:15;;;;;;;2.03;1.60;;;1.20;89.90;2.40;96110.00;;;;5036605;28;20973;-88
2023/01/21 03:22:09;;;;;;;1.33;1.23;;;1.40;88.20;2.20;96117.00;;;;5038510;28;20809;-87
2023/01/21 03:24:59;;;;;;;1.20;1.17;;;1.90;89.90;1.90;96103.00;;;;5046215;28;20427;-86
2023/01/21 03:27:49;;;;;;;1.83;1.40;;;1.20;89.10;2.10;96105.00;;;;5055680;28;20444;-88
2023/01/21 03:30:43;;;;;;;1.87;1.77;;;1.70;89.30;2.10;96115.00;;;;5045829;28;20932;-86
2023/01/21 03:33:36;;;;;;;1.60;1.50;;;1.20;88.80;2.10;96107.00;;;;5051582;28;20435;-88
2023/01/21 03:36:37;;;;;;;1.40;1.30;;;2.10;89.60;2.20;96100.00;;;;5043482;28;20420;-86
2023/01/21 03:39:36;;;;;;;1.77;1.67;;;1.20;87.90;2.20;96097.00;;;;5038765;28;20437;-88
2023/01/21 03:42:25;;;;;;;1.60;1.50;;;1.40;89.20;2.00;96096.00;;;;5037576;28;20424;-87
2023/01/21 03:45:14;;;;;;;2.23;1.50;;;1.10;89.80;2.10;96112.00;;;;5042385;28;20941;-88
2023/01/21 03:48:12;;;;;;;1.30;1.20;;;1.10;89.40;1.80;96097.00;;;;5036425;28;20472;-85
2023/01/21 03:51:09;;;;;;;1.50;1.40;;;1.00;90.10;1.90;96111.00;;;;5035884;28;20432;-84
2023/01/21 03:54:00;;;;;;;1.63;1.53;;;1.00;90.20;1.80;96094.00;;;;5035146;28;20435;-88
2023/01/21 03:56:49;;;;;;;2.30;1.37;;;1.80;90.40;1.80;96110.00;;;;5043022;28;20477;-87
2023/01/21 03:59:38;;;;;;;1.20;1.10;;;1.10;90.70;1.70;96103.00;;;;5037141;28;20436;-87
2023/01/21 04:02:27;;;;;;;2.97;1.10;;;0.80;90.60;1.60;96107.00;;;;5055128;28;20451;-88
2023/01/21 04:05:15;;;;;;;1.80;1.47;;;1.50;90.90;1.50;96080.00;;;;5042296;28;20439;-86
2023/01/21 04:08:04;;;;;;;1.37;1.27;;;1.80;90.90;1.70;96082.00;;;;5036421;28;20448;-88
2023/01/21 04:10:54;;;;;;;1.23;1.10;;;1.30;91.00;1.80;96108.00;;;;5044709;28;20416;-88
2023/01/21 04:13:43;;;;;;;1.37;1.30;;;2.40;90.80;1.90;96090.00;;;;5053610;28;20432;-90
2023/01/21 04:16:32;;;;;;;1.93;1.07;;;1.00;90.10;2.00;96090.00;;;;5034076;28;20797;-88
2023/01/21 04:19:21;;;;;;;2.10;1.40;;;2.60;90.80;1.90;96092.00;;;;5035434;28;20948;-89
2023/01/21 04:22:10;;;;;;;2.07;1.70;;;1.00;91.10;1.70;96091.00;;;;5032808;28;20483;-89
2023/01/21 04:24:58;;;;;;;1.97;1.73;;;0.80;90.90;1.90;96104.00;;;;5032310;28;20518;-88
2023/01/21 04:27:48;;;;;;;3.20;1.43;;;0.90;90.80;1.90;96108.00;;;;5044355;28;20959;-88
2023/01/21 04:30:37;;;;;;;1.70;1.60;;;1.00;91.10;1.40;96102.00;;;;5053616;28;20960;-88
2023/01/21 04:33:26;;;;;;;3.33;2.10;;;1.60;91.60;1.70;96102.00;;;;5055714;28;20432;-85
2023/01/21 04:36:15;;;;;;;2.33;2.07;;;0.80;91.00;1.80;96118.00;;;;5041212;28;20428;-89
2023/01/21 04:39:04;;;;;;;1.27;1.17;;;1.30;91.20;1.80;96123.00;;;;5035351;28;20444;-89
2023/01/21 04:41:52;;;;;;;3.27;1.33;;;1.40;91.30;1.70;96125.00;;;;5040928;28;20485;-89
2023/01/21 04:44:43;;;;;;;1.37;1.27;;;0.80;91.60;1.50;96121.00;;;;5039029;28;20447;-88
2023/01/21 04:47:32;;;;;;;1.27;0.83;;;0.70;91.70;1.40;96129.00;;;;5035642;28;20467;-87
2023/01/21 04:50:21;;;;;;;1.60;1.50;;;0.60;91.60;1.70;96141.00;;;;5034787;28;20421;-88
2023/01/21 04:53:10;;;;;;;1.47;1.37;;;1.50;92.10;1.50;96160.00;;;;5043238;28;20493;-88
2023/01/21 04:55:58;;;;;;;4.13;1.87;;;1.20;92.30;1.80;96154.00;;;;5053709;28;20430;-88
2023/01/21 04:58:47;;;;;;;2.23;1.73;;;1.70;91.70;1.80;96176.00;;;;5043943;28;20463;-86
2023/01/21 05:01:37;;;;;;;1.37;1.27;;;1.70;91.90;1.50;96180.00;;;;5042051;28;20466;-88
2023/01/21 05:04:26;;;;;;;1.40;1.30;;;0.90;92.40;1.40;96184.00;;;;5048386;28;20463;-86
2023/01/21 05:07:15;;;;;;;2.70;1.77;;;0.80;92.80;1.50;96196.00;;;;5035498;28;20444;-88
2023/01/21 05:10:04;;;;;;;1.57;1.47;;;1.90;93.10;1.50;96208.00;;;;5034826;28;20520;-86
2023/01/21 05:12:53;;;;;;;1.77;1.60;;;0.70;92.90;1.40;96207.00;;;;5044510;28;20431;-87
2023/01/21 05:15:42;;;;;;;2.23;1.93;;;1.60;93.60;1.30;96206.00;;;;5037868;28;20999;-87
2023/01/21 05:18:32;;;;;;;1.83;1.37;;;0.50;93.50;1.30;96211.00;;;;5034743;28;20463;-89
2023/01/21 05:21:21;;;;;;;1.93;1.40;;;2.50;94.40;1.30;96222.00;;;;5034605;28;20491;-87
2023/01/21 05:24:10;;;;;;;1.97;1.40;;;1.90;94.00;1.40;96215.00;;;;5036024;28;20992;-87
2023/01/21 05:26:58;;;;;;;1.37;1.27;;;0.40;93.00;1.50;96216.00;;;;5034754;28;20439;-88
2023/01/21 05:29:47;;;;;;;1.60;1.50;;;1.20;93.60;1.50;96216.00;;;;5035141;28;20444;-88
2023/01/21 05:32:36;;;;;;;1.50;1.40;;;2.00;94.00;1.50;96210.00;;;;5044572;28;20420;-88
2023/01/21 05:35:26;;;;;;;1.73;1.53;;;1.30;93.80;1.40;96196.00;;;;5047780;28;20456;-88
2023/01/21 05:38:15;;;;;;;2.40;2.10;;;2.50;94.90;1.40;96210.00;;;;5033837;28;20460;-87
2023/01/21 05:41:05;;;;;;;1.57;1.27;;;1.30;94.60;1.40;96214.00;;;;5032684;28;20829;-85
2023/01/21 05:43:53;;;;;;;1.73;1.03;;;0.50;93.50;1.50;96208.00;;;;5034246;28;20468;-88
2023/01/21 05:46:42;;;;;;;2.70;1.67;;;1.00;94.00;1.50;96229.00;;;;5042219;28;20425;-86
2023/01/21 05:49:31;;;;;;;1.53;1.33;;;1.50;94.10;1.60;96230.00;;;;5034543;28;20479;-86
2023/01/21 05:52:21;;;;;;;0.97;0.90;;;0.60;93.90;1.40;96221.00;;;;5033448;28;20440;-88
2023/01/21 05:55:10;;;;;;;1.67;1.43;;;0.60;94.40;1.60;96234.00;;;;5034470;28;20436;-88
2023/01/21 05:57:59;;;;;;;1.67;1.57;;;0.60;94.30;1.60;96242.00;;;;5032489;28;20440;-87
2023/01/21 06:00:48;;;;;;;1.30;1.10;;;0.60;94.00;1.50;96236.00;;;;5035751;28;20443;-90
2023/01/21 06:03:37;;;;;;;3.73;1.70;;;2.90;95.00;1.40;96239.00;;;;5052059;28;20423;-86
2023/01/21 06:06:25;;;;;;;1.77;1.63;;;3.40;95.40;1.50;96246.00;;;;5032511;28;20567;-88
2023/01/21 06:09:15;;;;;;;1.47;1.37;;;2.00;95.10;1.40;96239.00;;;;5033957;28;20439;-88
2023/01/21 06:12:05;;;;;;;2.30;1.57;;;1.90;95.30;1.30;96247.00;;;;5046171;28;20437;-88
2023/01/21 06:14:54;;;;;;;1.40;1.30;;;0.40;95.00;1.40;96244.00;;;;5034549;28;20786;-87
2023/01/21 06:17:42;;;;;;;1.87;1.33;;;0.80;95.70;1.40;96250.00;;;;5036407;28;20456;-86
2023/01/21 06:20:34;;;;;;;1.57;1.43;;;0.40;95.30;1.20;96248.00;;;;5053766;28;20424;-86
2023/01/21 06:23:22;;;;;;;2.60;1.93;;;1.50;96.50;1.20;96250.00;;;;5053227;28;20471;-89
2023/01/21 06:26:12;;;;;;;4.37;1.60;;;0.30;96.00;1.30;96255.00;;;;5053433;28;20459;-87
2023/01/21 06:29:01;;;;;;;2.13;2.00;;;0.80;96.20;1.30;96255.00;;;;5050788;28;20613;-87
2023/01/21 06:31:50;;;;;;;1.43;1.03;;;0.80;95.90;1.30;96258.00;;;;5048480;28;20419;-86
2023/01/21 06:34:39;;;;;;;2.63;2.27;;;1.00;96.30;1.40;96257.00;;;;5050973;28;20455;-87
2023/01/21 06:37:28;;;;;;;3.90;1.80;;;0.90;95.50;1.40;96265.00;;;;5058851;28;20513;-86
2023/01/21 06:40:17;;;;;;;1.30;1.20;;;2.40;96.30;1.40;96274.00;;;;5061996;28;20495;-86
2023/01/21 06:43:08;;;;;;;2.23;1.40;;;0.40;95.90;1.70;96268.00;;;;5052996;28;20459;-88
2023/01/21 06:46:00;;;;;;;1.63;1.20;;;0.50;95.40;1.80;96274.00;;;;5052092;28;20428;-88
2023/01/21 06:48:50;;;;;;;1.93;1.40;;;0.60;95.70;1.80;96282.00;;;;5058632;28;20430;-87
2023/01/21 06:51:39;;;;;;;3.10;1.70;;;1.80;96.30;1.50;96288.00;;;;5059368;28;20423;-88
2023/01/21 06:54:28;;;;;;;1.27;1.17;;;0.50;96.50;1.60;96288.00;;;;5062867;28;20411;-86
2023/01/21 06:57:18;;;;;;;4.13;2.70;;;1.50;96.30;1.60;96295.00;;;;5056958;28;20451;-88
2023/01/21 07:00:12;;;;;;;5.80;2.40;;;0.90;95.80;1.80;96312.00;;;;5060880;28;20827;-88
2023/01/21 07:03:01;;;;;;;2.53;1.57;;;0.60;96.00;1.70;96307.00;;;;5053676;28;20602;-87
2023/01/21 07:05:50;;;;;;;3.43;2.10;;;2.00;96.40;1.60;96310.00;;;;5058645;28;20427;-87
2023/01/21 07:08:39;;;;;;;1.73;1.50;;;1.10;96.30;1.80;96321.00;;;;5056182;28;20503;-88
2023/01/21 07:11:28;;;;;;;1.37;1.27;;;1.50;96.20;1.90;96320.00;;;;5055611;28;20418;-88
2023/01/21 07:14:16;;;;;;;2.20;1.63;;;1.10;96.30;1.90;96325.00;;;;5048776;28;20465;-87
2023/01/21 07:17:07;;;;;;;2.37;1.63;;;0.90;95.90;1.80;96333.00;;;;5050695;28;20429;-88
2023/01/21 07:19:55;;;;;;;6.80;1.83;;;0.90;95.70;2.10;96336.00;;;;5063824;28;20518;-88
2023/01/21 07:22:44;;;;;;;3.53;1.70;;;1.00;96.00;2.10;96344.00;;;;5057899;28;20483;-87
2023/01/21 07:25:34;;;;;;;1.83;1.60;;;2.20;96.20;2.20;96348.00;;;;5061352;28;20512;-88
2023/01/21 07:28:24;;;;;;;1.63;0.90;;;2.40;96.40;2.00;96335.00;;;;5061392;28;20526;-88
2023/01/21 07:31:13;;;;;;;1.77;1.67;;;3.90;97.20;2.10;96352.00;;;;5046334;28;20423;-86
2023/01/21 07:34:04;;;;;;;2.50;2.10;;;1.10;96.50;2.20;96345.00;;;;5057512;28;20971;-87
2023/01/21 07:36:52;;;;;;;2.73;1.60;;;3.10;97.40;2.20;96344.00;;;;5043893;28;20509;-86
2023/01/21 07:39:41;;;;;;;2.43;1.80;;;0.70;96.10;2.30;96353.00;;;;5036499;28;20408;-85
2023/01/21 07:42:30;;;;;;;4.37;1.97;;;1.10;96.30;2.40;96361.00;;;;5055386;28;20509;-86
2023/01/21 07:45:19;;;;;;;1.97;1.53;;;1.20;96.40;2.40;96371.00;;;;5064954;28;20414;-87
2023/01/21 07:48:07;;;;;;;2.50;2.30;;;1.70;96.40;2.50;96368.00;;;;5037499;28;20987;-88
2023/01/21 07:50:59;;;;;;;1.47;1.37;;;1.60;96.70;2.40;96368.00;;;;5053168;28;20862;-87
2023/01/21 07:53:48;;;;;;;2.43;1.90;;;1.20;96.40;2.60;96377.00;;;;5038383;28;20424;-86
2023/01/21 07:56:36;;;;;;;2.13;1.57;;;1.80;96.80;2.70;96383.00;;;;5047189;28;20860;-88
2023/01/21 07:59:25;;;;;;;5.43;2.87;;;1.50;96.80;2.80;96388.00;;;;5058068;28;21202;-86
2023/01/21 08:02:14;;;;;;;5.50;2.67;;;1.50;96.80;2.60;96375.00;;;;5052746;28;20550;-87
2023/01/21 08:05:03;;;;;;;2.07;1.17;;;2.10;96.90;2.80;96386.00;;;;5040867;28;20436;-88
2023/01/21 08:07:56;;;;;;;5.90;1.47;;;1.50;96.90;2.80;96382.00;;;;5045213;28;20451;-86
2023/01/21 08:10:51;;;;;;;2.13;1.87;;;2.90;97.30;2.80;96388.00;;;;5048584;28;20436;-87
2023/01/21 08:13:39;;;;;;;1.67;1.57;;;1.60;96.80;3.00;96386.00;;;;5042909;28;20455;-88
2023/01/21 08:16:28;;;;;;;3.23;1.73;;;1.60;96.90;3.10;96384.00;;;;5059645;28;20924;-87
2023/01/21 08:19:17;;;;;;;2.03;1.50;;;1.80;97.00;3.00;96384.00;;;;5060445;28;21027;-89
2023/01/21 08:22:06;;;;;;;2.63;1.70;;;1.80;96.80;3.00;96382.00;;;;5053822;28;20464;-87
2023/01/21 08:24:56;;;;;;;1.63;1.53;;;1.70;96.50;3.10;96392.00;;;;5051684;28;20477;-87
2023/01/21 08:27:45;;;;;;;2.30;1.37;;;1.80;96.80;3.00;96390.00;;;;5043510;28;20447;-89
2023/01/21 08:30:34;;;;;;;2.87;1.50;;;3.40;97.50;3.10;96393.00;;;;5047711;28;20420;-88
2023/01/21 08:33:22;;;;;;;2.67;1.73;;;1.90;96.90;3.00;96395.00;;;;5052673;28;20437;-87
2023/01/21 08:36:11;;;;;;;1.67;1.33;;;1.90;97.20;3.20;96385.00;;;;5043813;28;20443;-89
2023/01/21 08:39:02;;;;;;;2.17;1.87;;;2.00;97.20;3.10;96366.00;;;;5044251;28;20486;-88
2023/01/21 08:41:52;;;;;;;2.37;1.30;;;2.00;96.90;3.00;96367.00;;;;5053729;28;20451;-88
2023/01/21 08:44:41;;;;;;;1.00;0.97;;;2.30;96.40;3.00;96359.00;;;;5054784;28;20847;-87
2023/01/21 08:47:30;;;;;;;1.63;1.37;;;2.00;96.70;3.30;96363.00;;;;5047417;28;20809;-89
2023/01/21 08:50:19;;;;;;;1.63;1.00;;;2.00;96.70;3.40;96356.00;;;;5034643;28;20432;-88
2023/01/21 08:53:10;;;;;;;2.47;1.77;;;2.10;96.90;3.50;96361.00;;;;5035813;28;20424;-87
2023/01/21 08:56:00;;;;;;;1.63;1.53;;;2.10;96.30;3.60;96364.00;;;;5058088;28;20481;-86
2023/01/21 08:58:55;;;;;;;2.33;1.77;;;3.50;96.70;3.20;96360.00;;;;5054585;28;20454;-88
2023/01/21 09:01:44;;;;;;;2.23;1.80;;;2.20;95.80;3.00;96365.00;;;;5034017;28;20517;-87
2023/01/21 09:04:33;;;;;;;2.60;1.63;;;2.20;95.70;3.40;96384.00;;;;5042204;28;20428;-87
2023/01/21 09:07:22;;;;;;;2.20;1.70;;;2.20;95.80;3.50;96384.00;;;;5053184;28;20513;-86
2023/01/21 09:10:11;;;;;;;2.67;1.27;;;2.30;95.90;3.70;96388.00;;;;5055685;28;20829;-87
2023/01/21 09:13:04;;;;;;;2.10;1.73;;;2.30;96.00;3.70;96385.00;;;;5054580;28;20459;-86
2023/01/21 09:15:54;;;;;;;1.83;1.53;;;2.40;95.70;3.70;96386.00;;;;5040925;28;20432;-87
2023/01/21 09:18:44;;;;;;;1.30;1.20;;;3.50;95.70;3.90;96390.00;;;;5049242;28;20469;-87
2023/01/21 09:21:34;;;;;;;1.60;1.50;;;2.50;95.50;3.90;96400.00;;;;5064725;28;20204;-86
2023/01/21 09:24:23;;;;;;;1.67;1.53;;;2.60;95.40;4.10;96403.00;;;;5053340;28;20225;-86
2023/01/21 09:27:12;;;;;;;1.10;1.00;;;4.00;95.70;4.00;96399.00;;;;5054686;28;20973;-87
2023/01/21 09:30:01;;;;;;;1.87;1.67;;;4.70;95.70;3.80;96392.00;;;;5044931;28;20432;-87
2023/01/21 09:32:51;;;;;;;1.43;1.23;;;2.70;94.60;3.70;96385.00;;;;5053497;28;20806;-86
2023/01/21 09:35:40;;;;;;;2.30;2.10;;;2.70;94.50;3.90;96390.00;;;;5055328;28;20430;-87
2023/01/21 09:38:29;;;;;;;1.63;1.27;;;2.70;94.70;3.90;96386.00;;;;5044241;28;20237;-86
2023/01/21 09:41:25;;;;;;;3.57;2.37;;;2.70;94.30;4.00;96371.00;;;;5046726;28;20436;-85
2023/01/21 09:44:22;;;;;;;3.03;2.03;;;2.80;94.60;3.90;96372.00;;;;5032408;28;20521;-87
2023/01/21 09:47:21;;;;;;;2.70;2.40;;;2.70;94.50;3.90;96369.00;;;;5042605;28;20216;-86
2023/01/21 09:50:17;;;;;;;2.13;1.80;;;2.60;94.10;3.80;96370.00;;;;5048619;28;20522;-88
2023/01/21 09:53:23;;;;;;;1.67;1.30;;;2.70;94.20;3.80;96363.00;;;;5056581;28;20447;-88
2023/01/21 09:56:22;;;;;;;1.50;1.40;;;2.70;93.80;3.60;96356.00;;;;5047769;28;20505;-86
2023/01/21 09:59:19;;;;;;;1.87;1.67;;;3.30;93.90;3.90;96365.00;;;;5045250;28;20689;-87
2023/01/21 10:02:21;;;;;;;2.43;2.07;;;2.70;93.60;3.90;96351.00;;;;5062996;28;20437;-87
2023/01/21 10:06:17;;;;;;;2.07;1.30;;;2.70;93.30;4.00;96353.00;;;;5043031;28;20193;-88
2023/01/21 10:09:34;;;;;;;2.40;1.77;;;2.70;93.20;4.00;96354.00;;;;4999566;28;20503;-87
2023/01/21 10:12:39;;;;;;;1.63;1.43;;;2.80;92.90;4.30;96355.00;;;;5052300;28;20443;-86
2023/01/21 10:15:50;;;;;;;4.20;2.80;;;2.80;93.10;4.50;96353.00;;;;5052438;28;20423;-85
2023/01/21 10:18:42;;;;;;;7.17;4.13;;;3.90;93.40;4.50;96355.00;;;;5043329;28;20464;-87
2023/01/21 10:21:36;;;;;;;8.13;4.53;;;3.10;92.60;4.50;96350.00;;;;5033144;28;20437;-86
2023/01/21 10:24:29;;;;;;;5.23;2.93;;;3.10;92.50;4.70;96348.00;;;;5032017;28;20997;-87
2023/01/21 10:27:21;;;;;;;3.97;1.67;;;3.30;92.60;4.90;96344.00;;;;5031664;28;20221;-85
2023/01/21 10:30:23;;;;;;;1.50;1.40;;;3.40;92.50;4.70;96337.00;;;;5035284;28;20207;-86
2023/01/21 10:33:19;;;;;;;1.30;1.20;;;3.40;91.90;4.70;96330.00;;;;5050936;28;20222;-85
2023/01/21 10:36:43;;;;;;;1.80;1.30;;;3.50;91.50;5.20;96327.00;;;;5032214;28;20595;-88
2023/01/21 10:39:47;;;;;;;1.83;1.23;;;3.70;91.70;5.80;96340.00;;;;5052564;28;20201;-88
2023/01/21 10:42:54;;;;;;;1.20;1.10;;;4.00;91.40;5.60;96343.00;;;;5051740;28;20269;-85
2023/01/21 10:45:49;;;;;;;1.20;1.03;;;4.30;90.40;4.30;96331.00;;;;5048233;28;20197;-85
2023/01/21 10:48:48;;;;;;;1.50;1.27;;;4.10;89.20;5.20;96327.00;;;;5057542;28;20221;-85
2023/01/21 10:51:47;;;;;;;1.60;1.50;;;4.20;90.00;5.80;96329.00;;;;5056591;28;20580;-88
2023/01/21 10:54:48;;;;;;;1.60;1.20;;;4.90;89.60;6.10;96340.00;;;;5055609;28;20196;-86
2023/01/21 10:57:53;;;;;;;1.40;1.10;;;4.90;88.70;5.60;96335.00;;;;5053509;28;20219;-84
2023/01/21 11:00:46;;;;;;;1.63;1.20;;;5.10;87.30;5.10;96348.00;;;;5055351;28;20204;-86
2023/01/21 11:03:40;;;;;;;2.40;1.60;;;4.80;85.90;5.30;96350.00;;;;5055172;28;20227;-86
2023/01/21 11:06:33;;;;;;;0.93;0.93;;;4.60;87.00;4.60;96342.00;;;;5052838;28;20209;-85
2023/01/21 11:09:26;;;;;;;1.83;1.30;;;4.30;86.60;4.80;96340.00;;;;5039802;28;20215;-85
2023/01/21 11:12:20;;;;;;;2.83;2.57;;;4.20;87.90;5.20;96337.00;;;;5047732;28;20200;-86
2023/01/21 11:15:15;;;;;;;1.33;1.23;;;4.00;88.50;4.40;96333.00;;;;5052313;28;20209;-88
2023/01/21 11:18:27;;;;;;;1.17;0.90;;;3.90;86.70;5.20;96336.00;;;;5044676;28;20228;-86
2023/01/21 11:21:20;;;;;;;2.27;1.70;;;3.90;88.70;5.50;96345.00;;;;5049899;28;20200;-85
2023/01/21 11:24:26;;;;;;;2.67;1.60;;;4.00;89.10;5.70;96340.00;;;;5056955;28;20274;-87
2023/01/21 11:27:21;;;;;;;2.60;1.90;;;4.20;89.80;5.70;96341.00;;;;5033161;28;20217;-87
2023/01/21 11:30:33;;;;;;;3.20;1.43;;;4.30;89.40;5.80;96341.00;;;;5042820;28;20284;-88
2023/01/21 11:33:38;;;;;;;2.53;1.50;;;4.70;88.20;5.80;96344.00;;;;5054007;28;20204;-84
2023/01/21 11:36:27;;;;;;;1.73;1.63;;;4.50;88.20;6.00;96344.00;;;;5044812;28;20251;-86
2023/01/21 11:39:16;;;;;;;1.80;1.50;;;4.60;88.50;5.70;96346.00;;;;5054841;28;20225;-86
2023/01/21 11:42:12;;;;;;;1.10;1.00;;;4.70;88.30;5.70;96345.00;;;;5061877;28;20580;-87
2023/01/21 11:45:16;;;;;;;1.00;0.90;;;5.50;87.30;5.90;96341.00;;;;5043329;28;20194;-87
2023/01/21 11:48:20;;;;;;;2.07;1.73;;;4.60;86.40;5.50;96334.00;;;;5043350;28;20302;-87
2023/01/21 11:51:11;;;;;;;1.30;1.20;;;4.60;86.30;5.60;96336.00;;;;5035029;28;20638;-87
2023/01/21 11:54:12;;;;;;;3.47;1.23;;;4.50;87.20;5.60;96338.00;;;;5034537;28;20217;-85
2023/01/21 11:57:02;;;;;;;1.53;1.13;;;4.50;86.60;5.20;96329.00;;;;5044401;28;20254;-86
2023/01/21 12:00:06;;;;;;;1.33;1.13;;;4.70;85.50;5.20;96319.00;;;;5052921;28;20207;-87
2023/01/21 12:02:58;;;;;;;1.83;1.27;;;4.30;86.50;4.20;96318.00;;;;5054090;28;20573;-87
2023/01/21 12:05:52;;;;;;;2.10;1.43;;;4.10;85.90;5.40;96324.00;;;;5053736;28;20197;-86
2023/01/21 12:08:41;;;;;;;0.60;0.60;;;4.10;87.00;4.40;96326.00;;;;5048756;28;20216;-88
2023/01/21 12:11:31;;;;;;;1.87;1.60;;;4.10;87.60;5.00;96314.00;;;;5058862;28;20703;-87
2023/01/21 12:14:32;;;;;;;1.20;1.10;;;4.10;87.40;5.20;96328.00;;;;5057473;28;20223;-87
2023/01/21 12:17:42;;;;;;;1.90;1.60;;;4.00;88.80;5.50;96335.00;;;;5052027;28;20663;-87
2023/01/21 12:20:38;;;;;;;2.33;1.50;;;4.20;87.50;5.70;96325.00;;;;5055179;28;20199;-88
2023/01/21 12:23:58;;;;;;;3.10;1.47;;;4.20;88.10;5.60;96327.00;;;;5057130;28;20215;-88
2023/01/21 12:26:56;;;;;;;2.93;1.83;;;4.30;87.20;5.70;96335.00;;;;5050780;28;20215;-87
2023/01/21 12:29:59;;;;;;;1.97;1.50;;;5.90;88.60;5.70;96331.00;;;;5041545;28;20254;-87
2023/01/21 12:32:55;;;;;;;2.40;1.60;;;4.40;87.70;5.90;96342.00;;;;5044964;28;20193;-87
2023/01/21 12:35:49;;;;;;;3.10;1.17;;;5.90;89.20;6.10;96333.00;;;;5048635;28;20310;-88
2023/01/21 12:38:44;;;;;;;1.47;1.23;;;4.60;88.10;6.10;96332.00;;;;5054350;28;20208;-86
2023/01/21 12:41:34;;;;;;;1.63;1.53;;;4.60;87.40;5.80;96343.00;;;;5045602;28;20713;-88
2023/01/21 12:44:30;;;;;;;1.80;1.70;;;4.70;86.90;6.20;96336.00;;;;5054707;28;20589;-86
2023/01/21 12:47:29;;;;;;;1.40;1.00;;;4.70;87.90;5.90;96335.00;;;;5058861;28;20231;-87
2023/01/21 12:50:29;;;;;;;2.27;1.53;;;4.70;86.80;5.80;96347.00;;;;5059544;28;20233;-87
2023/01/21 12:53:27;;;;;;;6.30;3.17;;;4.80;85.60;5.70;96346.00;;;;5057019;28;20362;-87
2023/01/21 12:56:28;;;;;;;1.63;1.20;;;4.70;86.90;5.20;96344.00;;;;5057112;28;20216;-87
2023/01/21 12:59:22;;;;;;;1.60;1.27;;;4.50;85.10;5.00;96346.00;;;;5057188;28;20677;-87
2023/01/21 13:02:23;;;;;;;1.67;1.50;;;4.40;85.60;5.30;96351.00;;;;5056556;28;20665;-88
2023/01/21 13:05:17;;;;;;;3.93;2.70;;;4.40;86.50;5.50;96353.00;;;;5059897;28;20210;-86
2023/01/21 13:08:41;;;;;;;7.53;4.73;;;4.30;87.60;5.50;96358.00;;;;5055385;28;20224;-86
2023/01/21 13:11:36;;;;;;;7.70;2.20;;;4.20;87.50;5.40;96358.00;;;;5053560;28;20212;-87